sensor_id;sensor_type;location;lat;lon;timestamp;temperature;humidity
51500;DHT22;39101;53.478;6.158;2023-11-19T00:02:08;11.40;99.90
51500;DHT22;39101;53.478;6.158;2023-11-19T00:04:40;11.40;99.90
51500;DHT22;39101;53.478;6.158;2023-11-19T00:07:06;11.40;99.90
51500;DHT22;39101;53.478;6.158;2023-11-19T00:09:36;11.40;99.90
51500;DHT22;39101;53.478;6.158;2023-11-19T00:12:06;11.40;99.90
51500;DHT22;39101;53.478;6.158;2023-11-19T00:14:33;11.50;99.90
51500;DHT22;39101;53.478;6.158;2023-11-19T00:17:00;11.40;99.90
51500;DHT22;39101;53.478;6.158;2023-11-19T00:19:25;11.50;99.90
51500;DHT22;39101;53.478;6.158;2023-11-19T00:21:52;11.50;99.90
51500;DHT22;39101;53.478;6.158;2023-11-19T00:24:18;11.50;99.90
51500;DHT22;39101;53.478;6.158;2023-11-19T00:26:44;11.60;99.90
51500;DHT22;39101;53.478;6.158;2023-11-19T00:29:09;11.60;99.90
51500;DHT22;39101;53.478;6.158;2023-11-19T00:31:36;11.50;99.90
51500;DHT22;39101;53.478;6.158;2023-11-19T00:34:02;11.60;99.90
51500;DHT22;39101;53.478;6.158;2023-11-19T00:36:28;11.50;99.90
51500;DHT22;39101;53.478;6.158;2023-11-19T00:38:54;11.50;99.90
51500;DHT22;39101;53.478;6.158;2023-11-19T00:41:20;11.50;99.90
51500;DHT22;39101;53.478;6.158;2023-11-19T00:43:45;11.50;99.90
51500;DHT22;39101;53.478;6.158;2023-11-19T00:46:11;11.50;99.90
51500;DHT22;39101;53.478;6.158;2023-11-19T00:48:39;11.50;99.90
51500;DHT22;39101;53.478;6.158;2023-11-19T00:51:05;11.50;99.90
51500;DHT22;39101;53.478;6.158;2023-11-19T00:53:31;11.50;99.90
51500;DHT22;39101;53.478;6.158;2023-11-19T00:55:59;11.40;99.90
51500;DHT22;39101;53.478;6.158;2023-11-19T00:58:25;11.50;99.90
51500;DHT22;39101;53.478;6.158;2023-11-19T01:00:51;11.50;99.90
51500;DHT22;39101;53.478;6.158;2023-11-19T01:03:17;11.50;99.90
51500;DHT22;39101;53.478;6.158;2023-11-19T01:05:42;11.50;99.90
51500;DHT22;39101;53.478;6.158;2023-11-19T01:08:10;11.50;99.90
51500;DHT22;39101;53.478;6.158;2023-11-19T01:10:37;11.50;99.90
51500;DHT22;39101;53.478;6.158;2023-11-19T01:13:02;11.50;99.90
51500;DHT22;39101;53.478;6.158;2023-11-19T01:15:31;11.50;99.90
51500;DHT22;39101;53.478;6.158;2023-11-19T01:17:57;11.50;99.90
51500;DHT22;39101;53.478;6.158;2023-11-19T01:20:23;11.60;99.90
51500;DHT22;39101;53.478;6.158;2023-11-19T01:22:50;11.50;99.90
51500;DHT22;39101;53.478;6.158;2023-11-19T01:25:16;11.60;99.90
51500;DHT22;39101;53.478;6.158;2023-11-19T01:27:41;11.60;99.90
51500;DHT22;39101;53.478;6.158;2023-11-19T01:30:08;11.60;99.90
51500;DHT22;39101;53.478;6.158;2023-11-19T01:32:35;11.50;99.90
51500;DHT22;39101;53.478;6.158;2023-11-19T01:35:03;11.50;99.90
51500;DHT22;39101;53.478;6.158;2023-11-19T01:37:29;11.50;99.90
51500;DHT22;39101;53.478;6.158;2023-11-19T01:39:57;11.50;99.90
51500;DHT22;39101;53.478;6.158;2023-11-19T01:42:23;11.50;99.90
51500;DHT22;39101;53.478;6.158;2023-11-19T01:44:58;11.50;99.90
51500;DHT22;39101;53.478;6.158;2023-11-19T01:47:24;11.50;99.90
51500;DHT22;39101;53.478;6.158;2023-11-19T01:49:50;11.50;99.90
51500;DHT22;39101;53.478;6.158;2023-11-19T01:52:16;11.50;99.90
51500;DHT22;39101;53.478;6.158;2023-11-19T01:54:42;11.50;99.90
51500;DHT22;39101;53.478;6.158;2023-11-19T01:57:09;11.50;99.90
51500;DHT22;39101;53.478;6.158;2023-11-19T01:59:34;11.50;99.90
51500;DHT22;39101;53.478;6.158;2023-11-19T02:02:00;11.50;99.90
51500;DHT22;39101;53.478;6.158;2023-11-19T02:04:26;11.40;99.90
51500;DHT22;39101;53.478;6.158;2023-11-19T02:06:54;11.40;99.90
51500;DHT22;39101;53.478;6.158;2023-11-19T02:09:21;11.40;99.90
51500;DHT22;39101;53.478;6.158;2023-11-19T02:11:47;11.40;99.90
51500;DHT22;39101;53.478;6.158;2023-11-19T02:14:17;11.40;99.90
51500;DHT22;39101;53.478;6.158;2023-11-19T02:16:43;11.40;99.90
51500;DHT22;39101;53.478;6.158;2023-11-19T02:19:09;11.40;99.90
51500;DHT22;39101;53.478;6.158;2023-11-19T02:21:37;11.30;99.90
51500;DHT22;39101;53.478;6.158;2023-11-19T02:24:08;11.40;99.90
51500;DHT22;39101;53.478;6.158;2023-11-19T02:27:02;11.40;99.90
51500;DHT22;39101;53.478;6.158;2023-11-19T02:29:31;11.40;99.90
51500;DHT22;39101;53.478;6.158;2023-11-19T02:31:56;11.40;99.90
51500;DHT22;39101;53.478;6.158;2023-11-19T02:34:22;11.30;99.90
51500;DHT22;39101;53.478;6.158;2023-11-19T02:36:48;11.40;99.90
51500;DHT22;39101;53.478;6.158;2023-11-19T02:39:15;11.40;99.90
51500;DHT22;39101;53.478;6.158;2023-11-19T02:41:47;11.40;99.90
51500;DHT22;39101;53.478;6.158;2023-11-19T02:44:12;11.40;99.90
51500;DHT22;39101;53.478;6.158;2023-11-19T02:46:39;11.40;99.90
51500;DHT22;39101;53.478;6.158;2023-11-19T02:49:07;11.40;99.90
51500;DHT22;39101;53.478;6.158;2023-11-19T02:51:33;11.40;99.90
51500;DHT22;39101;53.478;6.158;2023-11-19T02:54:00;11.30;99.90
51500;DHT22;39101;53.478;6.158;2023-11-19T02:56:25;11.30;99.90
51500;DHT22;39101;53.478;6.158;2023-11-19T02:58:52;11.30;99.90
51500;DHT22;39101;53.478;6.158;2023-11-19T03:01:25;11.30;99.90
51500;DHT22;39101;53.478;6.158;2023-11-19T03:04:01;11.30;99.90
51500;DHT22;39101;53.478;6.158;2023-11-19T03:06:27;11.30;99.90
51500;DHT22;39101;53.478;6.158;2023-11-19T03:08:54;11.30;99.90
51500;DHT22;39101;53.478;6.158;2023-11-19T03:11:20;11.30;99.90
51500;DHT22;39101;53.478;6.158;2023-11-19T03:13:46;11.30;99.90
51500;DHT22;39101;53.478;6.158;2023-11-19T03:16:12;11.30;99.90
51500;DHT22;39101;53.478;6.158;2023-11-19T03:18:38;11.20;99.90
51500;DHT22;39101;53.478;6.158;2023-11-19T03:21:06;11.20;99.90
51500;DHT22;39101;53.478;6.158;2023-11-19T03:23:33;11.20;99.90
51500;DHT22;39101;53.478;6.158;2023-11-19T03:25:59;11.30;99.90
51500;DHT22;39101;53.478;6.158;2023-11-19T03:28:29;11.30;99.90
51500;DHT22;39101;53.478;6.158;2023-11-19T03:30:54;11.30;99.90
51500;DHT22;39101;53.478;6.158;2023-11-19T03:33:20;11.40;99.90
51500;DHT22;39101;53.478;6.158;2023-11-19T03:35:46;11.40;99.90
51500;DHT22;39101;53.478;6.158;2023-11-19T03:38:12;11.30;99.90
51500;DHT22;39101;53.478;6.158;2023-11-19T03:40:38;11.30;99.90
51500;DHT22;39101;53.478;6.158;2023-11-19T03:43:04;11.30;99.90
51500;DHT22;39101;53.478;6.158;2023-11-19T03:45:30;11.40;99.90
51500;DHT22;39101;53.478;6.158;2023-11-19T03:47:56;11.40;99.90
51500;DHT22;39101;53.478;6.158;2023-11-19T03:50:21;11.30;99.90
51500;DHT22;39101;53.478;6.158;2023-11-19T03:52:48;11.30;99.90
51500;DHT22;39101;53.478;6.158;2023-11-19T03:55:13;11.40;99.90
51500;DHT22;39101;53.478;6.158;2023-11-19T03:57:39;11.30;99.90
51500;DHT22;39101;53.478;6.158;2023-11-19T04:00:06;11.30;99.90
51500;DHT22;39101;53.478;6.158;2023-11-19T04:02:36;11.40;99.90
51500;DHT22;39101;53.478;6.158;2023-11-19T04:05:02;11.40;99.90
51500;DHT22;39101;53.478;6.158;2023-11-19T04:07:29;11.40;99.90
51500;DHT22;39101;53.478;6.158;2023-11-19T04:09:55;11.30;99.90
51500;DHT22;39101;53.478;6.158;2023-11-19T04:12:21;11.40;99.90
51500;DHT22;39101;53.478;6.158;2023-11-19T04:14:47;11.40;99.90
51500;DHT22;39101;53.478;6.158;2023-11-19T04:17:13;11.40;99.90
51500;DHT22;39101;53.478;6.158;2023-11-19T04:19:38;11.40;99.90
51500;DHT22;39101;53.478;6.158;2023-11-19T04:22:07;11.40;99.90
51500;DHT22;39101;53.478;6.158;2023-11-19T04:24:33;11.40;99.90
51500;DHT22;39101;53.478;6.158;2023-11-19T04:26:59;11.40;99.90
51500;DHT22;39101;53.478;6.158;2023-11-19T04:29:25;11.40;99.90
51500;DHT22;39101;53.478;6.158;2023-11-19T04:31:50;11.40;99.90
51500;DHT22;39101;53.478;6.158;2023-11-19T04:34:16;11.40;99.90
51500;DHT22;39101;53.478;6.158;2023-11-19T04:36:42;11.40;99.90
51500;DHT22;39101;53.478;6.158;2023-11-19T04:39:09;11.30;99.90
51500;DHT22;39101;53.478;6.158;2023-11-19T04:41:48;11.20;99.90
51500;DHT22;39101;53.478;6.158;2023-11-19T04:44:15;11.30;99.90
51500;DHT22;39101;53.478;6.158;2023-11-19T04:46:41;11.30;99.90
51500;DHT22;39101;53.478;6.158;2023-11-19T04:49:09;11.30;99.90
51500;DHT22;39101;53.478;6.158;2023-11-19T04:51:43;11.20;99.90
51500;DHT22;39101;53.478;6.158;2023-11-19T04:54:09;11.20;99.90
51500;DHT22;39101;53.478;6.158;2023-11-19T04:56:36;11.20;99.90
51500;DHT22;39101;53.478;6.158;2023-11-19T04:59:06;11.20;99.90
51500;DHT22;39101;53.478;6.158;2023-11-19T05:01:35;11.20;99.90
51500;DHT22;39101;53.478;6.158;2023-11-19T05:04:01;11.10;99.90
51500;DHT22;39101;53.478;6.158;2023-11-19T05:06:30;11.20;99.90
51500;DHT22;39101;53.478;6.158;2023-11-19T05:08:58;11.20;99.90
51500;DHT22;39101;53.478;6.158;2023-11-19T05:11:24;11.30;99.90
51500;DHT22;39101;53.478;6.158;2023-11-19T05:13:49;11.30;99.90
51500;DHT22;39101;53.478;6.158;2023-11-19T05:16:16;11.20;99.90
51500;DHT22;39101;53.478;6.158;2023-11-19T05:18:43;11.30;99.90
51500;DHT22;39101;53.478;6.158;2023-11-19T05:21:08;11.20;99.90
51500;DHT22;39101;53.478;6.158;2023-11-19T05:23:34;11.10;99.90
51500;DHT22;39101;53.478;6.158;2023-11-19T05:26:03;11.10;99.90
51500;DHT22;39101;53.478;6.158;2023-11-19T05:28:29;11.10;99.90
51500;DHT22;39101;53.478;6.158;2023-11-19T05:30:55;11.00;99.90
51500;DHT22;39101;53.478;6.158;2023-11-19T05:33:21;11.00;99.90
51500;DHT22;39101;53.478;6.158;2023-11-19T05:35:46;11.00;99.90
51500;DHT22;39101;53.478;6.158;2023-11-19T05:38:12;11.00;99.90
51500;DHT22;39101;53.478;6.158;2023-11-19T05:40:38;11.00;99.90
51500;DHT22;39101;53.478;6.158;2023-11-19T05:43:04;11.00;99.90
51500;DHT22;39101;53.478;6.158;2023-11-19T05:45:31;11.00;99.90
51500;DHT22;39101;53.478;6.158;2023-11-19T05:47:57;11.10;99.90
51500;DHT22;39101;53.478;6.158;2023-11-19T05:50:23;11.00;99.90
51500;DHT22;39101;53.478;6.158;2023-11-19T05:52:49;11.00;99.90
51500;DHT22;39101;53.478;6.158;2023-11-19T05:55:15;11.00;99.90
51500;DHT22;39101;53.478;6.158;2023-11-19T05:57:41;11.00;99.90
51500;DHT22;39101;53.478;6.158;2023-11-19T06:00:07;11.00;99.90
51500;DHT22;39101;53.478;6.158;2023-11-19T06:02:34;11.00;99.90
51500;DHT22;39101;53.478;6.158;2023-11-19T06:05:00;11.00;99.90
51500;DHT22;39101;53.478;6.158;2023-11-19T06:07:27;10.90;99.90
51500;DHT22;39101;53.478;6.158;2023-11-19T06:09:53;10.80;99.90
51500;DHT22;39101;53.478;6.158;2023-11-19T06:12:19;10.90;99.90
51500;DHT22;39101;53.478;6.158;2023-11-19T06:14:44;10.80;99.90
51500;DHT22;39101;53.478;6.158;2023-11-19T06:17:10;10.80;99.90
51500;DHT22;39101;53.478;6.158;2023-11-19T06:19:37;10.80;99.90
51500;DHT22;39101;53.478;6.158;2023-11-19T06:22:03;10.80;99.90
51500;DHT22;39101;53.478;6.158;2023-11-19T06:24:29;10.80;99.90
51500;DHT22;39101;53.478;6.158;2023-11-19T06:26:55;10.80;99.90
51500;DHT22;39101;53.478;6.158;2023-11-19T06:29:21;10.70;99.90
51500;DHT22;39101;53.478;6.158;2023-11-19T06:31:46;10.70;99.90
51500;DHT22;39101;53.478;6.158;2023-11-19T06:34:14;10.70;99.90
51500;DHT22;39101;53.478;6.158;2023-11-19T06:36:40;10.70;99.90
51500;DHT22;39101;53.478;6.158;2023-11-19T06:39:06;10.70;99.90
51500;DHT22;39101;53.478;6.158;2023-11-19T06:41:31;10.70;99.90
51500;DHT22;39101;53.478;6.158;2023-11-19T06:43:57;10.70;99.90
51500;DHT22;39101;53.478;6.158;2023-11-19T06:46:23;10.80;99.90
51500;DHT22;39101;53.478;6.158;2023-11-19T06:48:49;10.80;99.90
51500;DHT22;39101;53.478;6.158;2023-11-19T06:51:15;10.80;99.90
51500;DHT22;39101;53.478;6.158;2023-11-19T06:53:42;10.80;99.90
51500;DHT22;39101;53.478;6.158;2023-11-19T06:56:23;10.70;99.90
51500;DHT22;39101;53.478;6.158;2023-11-19T06:58:52;10.70;99.90
51500;DHT22;39101;53.478;6.158;2023-11-19T07:01:19;10.70;99.90
51500;DHT22;39101;53.478;6.158;2023-11-19T07:03:45;10.70;99.90
51500;DHT22;39101;53.478;6.158;2023-11-19T07:06:14;10.70;99.90
51500;DHT22;39101;53.478;6.158;2023-11-19T07:08:43;10.60;99.90
51500;DHT22;39101;53.478;6.158;2023-11-19T07:11:12;10.60;99.90
51500;DHT22;39101;53.478;6.158;2023-11-19T07:13:40;10.60;99.90
51500;DHT22;39101;53.478;6.158;2023-11-19T07:16:07;10.60;99.90
51500;DHT22;39101;53.478;6.158;2023-11-19T07:18:35;10.50;99.90
51500;DHT22;39101;53.478;6.158;2023-11-19T07:21:01;10.50;99.90
51500;DHT22;39101;53.478;6.158;2023-11-19T07:23:28;10.40;99.90
51500;DHT22;39101;53.478;6.158;2023-11-19T07:25:54;10.50;99.90
51500;DHT22;39101;53.478;6.158;2023-11-19T07:28:19;10.40;99.90
51500;DHT22;39101;53.478;6.158;2023-11-19T07:30:45;10.50;99.90
51500;DHT22;39101;53.478;6.158;2023-11-19T07:33:11;10.50;99.90
51500;DHT22;39101;53.478;6.158;2023-11-19T07:35:39;10.50;99.90
51500;DHT22;39101;53.478;6.158;2023-11-19T07:38:06;10.50;99.90
51500;DHT22;39101;53.478;6.158;2023-11-19T07:40:32;10.60;99.90
51500;DHT22;39101;53.478;6.158;2023-11-19T07:42:58;10.60;99.90
51500;DHT22;39101;53.478;6.158;2023-11-19T07:45:23;10.60;99.90
51500;DHT22;39101;53.478;6.158;2023-11-19T07:47:49;10.70;99.90
51500;DHT22;39101;53.478;6.158;2023-11-19T07:50:16;10.60;99.90
51500;DHT22;39101;53.478;6.158;2023-11-19T07:52:44;10.70;99.90
51500;DHT22;39101;53.478;6.158;2023-11-19T07:55:10;10.60;99.90
51500;DHT22;39101;53.478;6.158;2023-11-19T07:57:36;10.70;99.90
51500;DHT22;39101;53.478;6.158;2023-11-19T08:00:03;10.70;99.90
51500;DHT22;39101;53.478;6.158;2023-11-19T08:02:28;10.80;99.90
51500;DHT22;39101;53.478;6.158;2023-11-19T08:04:54;10.80;99.90
51500;DHT22;39101;53.478;6.158;2023-11-19T08:07:21;10.80;99.90
51500;DHT22;39101;53.478;6.158;2023-11-19T08:09:47;10.90;99.90
51500;DHT22;39101;53.478;6.158;2023-11-19T08:12:13;10.90;99.90
51500;DHT22;39101;53.478;6.158;2023-11-19T08:14:43;10.80;99.90
51500;DHT22;39101;53.478;6.158;2023-11-19T08:17:09;10.90;99.90
51500;DHT22;39101;53.478;6.158;2023-11-19T08:19:35;10.90;99.90
51500;DHT22;39101;53.478;6.158;2023-11-19T08:22:00;10.90;99.90
51500;DHT22;39101;53.478;6.158;2023-11-19T08:24:26;10.90;99.90
51500;DHT22;39101;53.478;6.158;2023-11-19T08:26:52;10.90;99.90
51500;DHT22;39101;53.478;6.158;2023-11-19T08:29:17;10.90;99.90
51500;DHT22;39101;53.478;6.158;2023-11-19T08:31:43;11.00;99.90
51500;DHT22;39101;53.478;6.158;2023-11-19T08:34:09;11.00;99.90
51500;DHT22;39101;53.478;6.158;2023-11-19T08:36:35;11.00;99.90
51500;DHT22;39101;53.478;6.158;2023-11-19T08:39:00;11.00;99.90
51500;DHT22;39101;53.478;6.158;2023-11-19T08:41:26;11.10;99.90
51500;DHT22;39101;53.478;6.158;2023-11-19T08:43:52;11.00;99.90
51500;DHT22;39101;53.478;6.158;2023-11-19T08:46:18;11.00;99.90
51500;DHT22;39101;53.478;6.158;2023-11-19T08:48:44;11.00;99.90
51500;DHT22;39101;53.478;6.158;2023-11-19T08:51:09;11.00;99.90
51500;DHT22;39101;53.478;6.158;2023-11-19T08:53:35;11.00;99.90
51500;DHT22;39101;53.478;6.158;2023-11-19T08:56:01;11.00;99.90
51500;DHT22;39101;53.478;6.158;2023-11-19T08:58:28;11.10;99.90
51500;DHT22;39101;53.478;6.158;2023-11-19T09:00:54;11.10;99.90
51500;DHT22;39101;53.478;6.158;2023-11-19T09:03:21;11.10;99.90
51500;DHT22;39101;53.478;6.158;2023-11-19T09:05:47;11.10;99.90
51500;DHT22;39101;53.478;6.158;2023-11-19T09:08:12;11.20;99.90
51500;DHT22;39101;53.478;6.158;2023-11-19T09:10:38;11.20;99.90
51500;DHT22;39101;53.478;6.158;2023-11-19T09:13:04;11.20;99.90
51500;DHT22;39101;53.478;6.158;2023-11-19T09:15:29;11.10;99.90
51500;DHT22;39101;53.478;6.158;2023-11-19T09:17:55;11.10;99.90
51500;DHT22;39101;53.478;6.158;2023-11-19T09:20:21;11.10;99.90
51500;DHT22;39101;53.478;6.158;2023-11-19T09:22:47;11.20;99.90
51500;DHT22;39101;53.478;6.158;2023-11-19T09:25:13;11.20;99.90
51500;DHT22;39101;53.478;6.158;2023-11-19T09:27:42;11.10;99.90
51500;DHT22;39101;53.478;6.158;2023-11-19T09:30:09;11.20;99.90
51500;DHT22;39101;53.478;6.158;2023-11-19T09:32:35;11.30;99.90
51500;DHT22;39101;53.478;6.158;2023-11-19T09:35:00;11.30;99.90
51500;DHT22;39101;53.478;6.158;2023-11-19T09:37:26;11.30;99.90
51500;DHT22;39101;53.478;6.158;2023-11-19T09:39:52;11.40;99.90
51500;DHT22;39101;53.478;6.158;2023-11-19T09:42:19;11.50;99.90
51500;DHT22;39101;53.478;6.158;2023-11-19T09:44:45;11.60;99.90
51500;DHT22;39101;53.478;6.158;2023-11-19T09:47:13;11.60;99.90
51500;DHT22;39101;53.478;6.158;2023-11-19T09:49:39;11.50;99.90
51500;DHT22;39101;53.478;6.158;2023-11-19T09:52:05;11.60;99.90
51500;DHT22;39101;53.478;6.158;2023-11-19T09:54:31;11.50;99.90
51500;DHT22;39101;53.478;6.158;2023-11-19T09:56:58;11.60;99.90
51500;DHT22;39101;53.478;6.158;2023-11-19T09:59:29;11.60;99.90
51500;DHT22;39101;53.478;6.158;2023-11-19T10:01:56;11.70;99.90
51500;DHT22;39101;53.478;6.158;2023-11-19T10:04:22;11.80;99.90
51500;DHT22;39101;53.478;6.158;2023-11-19T10:06:50;11.90;99.90
51500;DHT22;39101;53.478;6.158;2023-11-19T10:09:16;11.90;99.90
51500;DHT22;39101;53.478;6.158;2023-11-19T10:11:42;11.90;99.90
51500;DHT22;39101;53.478;6.158;2023-11-19T10:14:08;11.90;99.90
51500;DHT22;39101;53.478;6.158;2023-11-19T10:16:35;11.90;99.90
51500;DHT22;39101;53.478;6.158;2023-11-19T10:19:00;11.80;99.90
51500;DHT22;39101;53.478;6.158;2023-11-19T10:21:26;11.80;99.90
51500;DHT22;39101;53.478;6.158;2023-11-19T10:23:56;11.80;99.90
51500;DHT22;39101;53.478;6.158;2023-11-19T10:26:24;11.80;99.90
51500;DHT22;39101;53.478;6.158;2023-11-19T10:28:50;11.70;99.90
51500;DHT22;39101;53.478;6.158;2023-11-19T10:31:17;11.70;99.90
51500;DHT22;39101;53.478;6.158;2023-11-19T10:33:43;11.80;99.90
51500;DHT22;39101;53.478;6.158;2023-11-19T10:36:11;11.90;99.90
51500;DHT22;39101;53.478;6.158;2023-11-19T10:38:40;11.90;99.90
51500;DHT22;39101;53.478;6.158;2023-11-19T10:41:06;12.00;99.90
51500;DHT22;39101;53.478;6.158;2023-11-19T10:43:45;12.00;99.90
51500;DHT22;39101;53.478;6.158;2023-11-19T10:46:11;12.10;99.90
51500;DHT22;39101;53.478;6.158;2023-11-19T10:48:38;12.00;99.90
51500;DHT22;39101;53.478;6.158;2023-11-19T10:51:06;12.10;99.90
51500;DHT22;39101;53.478;6.158;2023-11-19T10:53:38;12.00;99.90
51500;DHT22;39101;53.478;6.158;2023-11-19T10:56:08;12.00;99.90
51500;DHT22;39101;53.478;6.158;2023-11-19T10:58:36;12.00;99.90
51500;DHT22;39101;53.478;6.158;2023-11-19T11:01:11;11.90;99.90
51500;DHT22;39101;53.478;6.158;2023-11-19T11:03:42;12.00;99.90
51500;DHT22;39101;53.478;6.158;2023-11-19T11:06:13;11.80;99.90
51500;DHT22;39101;53.478;6.158;2023-11-19T11:08:39;11.80;99.90
51500;DHT22;39101;53.478;6.158;2023-11-19T11:11:05;11.70;99.90
51500;DHT22;39101;53.478;6.158;2023-11-19T11:13:34;11.70;99.90
51500;DHT22;39101;53.478;6.158;2023-11-19T11:16:04;11.80;99.90
51500;DHT22;39101;53.478;6.158;2023-11-19T11:18:32;11.80;99.90
51500;DHT22;39101;53.478;6.158;2023-11-19T11:21:04;11.80;99.90
51500;DHT22;39101;53.478;6.158;2023-11-19T11:34:28;11.80;99.90
51500;DHT22;39101;53.478;6.158;2023-11-19T11:39:31;11.80;99.90
51500;DHT22;39101;53.478;6.158;2023-11-19T11:45:14;11.90;99.90
51500;DHT22;39101;53.478;6.158;2023-11-19T11:50:18;11.70;99.90
51500;DHT22;39101;53.478;6.158;2023-11-19T11:55:25;11.60;99.90
51500;DHT22;39101;53.478;6.158;2023-11-19T11:57:51;11.60;99.90
51500;DHT22;39101;53.478;6.158;2023-11-19T12:00:28;11.50;99.90
51500;DHT22;39101;53.478;6.158;2023-11-19T12:03:02;11.60;99.90
51500;DHT22;39101;53.478;6.158;2023-11-19T12:05:28;11.50;99.90
51500;DHT22;39101;53.478;6.158;2023-11-19T12:08:05;11.60;99.90
51500;DHT22;39101;53.478;6.158;2023-11-19T12:10:37;11.40;99.90
51500;DHT22;39101;53.478;6.158;2023-11-19T12:13:08;11.30;99.90
51500;DHT22;39101;53.478;6.158;2023-11-19T12:18:20;11.30;99.90
51500;DHT22;39101;53.478;6.158;2023-11-19T12:20:46;11.20;99.90
51500;DHT22;39101;53.478;6.158;2023-11-19T12:23:12;11.20;99.90
51500;DHT22;39101;53.478;6.158;2023-11-19T12:25:38;11.20;99.90
51500;DHT22;39101;53.478;6.158;2023-11-19T12:28:03;11.20;99.90
51500;DHT22;39101;53.478;6.158;2023-11-19T12:30:29;11.20;99.90
51500;DHT22;39101;53.478;6.158;2023-11-19T12:32:55;11.20;99.90
51500;DHT22;39101;53.478;6.158;2023-11-19T12:35:22;11.10;99.90
51500;DHT22;39101;53.478;6.158;2023-11-19T12:37:49;11.10;99.90
51500;DHT22;39101;53.478;6.158;2023-11-19T12:42:48;11.10;99.90
51500;DHT22;39101;53.478;6.158;2023-11-19T12:45:14;11.30;99.90
51500;DHT22;39101;53.478;6.158;2023-11-19T12:47:42;11.20;99.90
51500;DHT22;39101;53.478;6.158;2023-11-19T12:50:09;11.20;99.90
51500;DHT22;39101;53.478;6.158;2023-11-19T12:52:38;11.20;99.90
51500;DHT22;39101;53.478;6.158;2023-11-19T12:55:05;11.20;99.90
51500;DHT22;39101;53.478;6.158;2023-11-19T12:57:40;11.30;99.90
51500;DHT22;39101;53.478;6.158;2023-11-19T13:00:07;11.30;99.90
51500;DHT22;39101;53.478;6.158;2023-11-19T13:02:56;11.40;99.90
51500;DHT22;39101;53.478;6.158;2023-11-19T13:05:30;11.40;99.90
51500;DHT22;39101;53.478;6.158;2023-11-19T13:08:05;11.30;99.90
51500;DHT22;39101;53.478;6.158;2023-11-19T13:10:52;11.40;99.90
51500;DHT22;39101;53.478;6.158;2023-11-19T13:13:17;11.40;99.90
51500;DHT22;39101;53.478;6.158;2023-11-19T13:15:43;11.40;99.90
51500;DHT22;39101;53.478;6.158;2023-11-19T13:18:10;11.40;99.90
51500;DHT22;39101;53.478;6.158;2023-11-19T13:20:36;11.50;99.90
51500;DHT22;39101;53.478;6.158;2023-11-19T13:23:03;11.50;99.90
51500;DHT22;39101;53.478;6.158;2023-11-19T13:25:30;11.40;99.90
51500;DHT22;39101;53.478;6.158;2023-11-19T13:27:56;11.50;99.90
51500;DHT22;39101;53.478;6.158;2023-11-19T13:30:23;11.50;99.90
51500;DHT22;39101;53.478;6.158;2023-11-19T13:32:49;11.50;99.90
51500;DHT22;39101;53.478;6.158;2023-11-19T13:35:16;11.50;99.90
51500;DHT22;39101;53.478;6.158;2023-11-19T13:37:45;11.50;99.90
51500;DHT22;39101;53.478;6.158;2023-11-19T13:40:11;11.50;99.90
51500;DHT22;39101;53.478;6.158;2023-11-19T13:42:40;11.40;99.90
51500;DHT22;39101;53.478;6.158;2023-11-19T13:45:15;11.40;99.90
51500;DHT22;39101;53.478;6.158;2023-11-19T13:47:42;11.30;99.90
51500;DHT22;39101;53.478;6.158;2023-11-19T13:50:10;11.40;99.90
51500;DHT22;39101;53.478;6.158;2023-11-19T13:52:37;11.30;99.90
51500;DHT22;39101;53.478;6.158;2023-11-19T13:55:07;11.30;99.90
51500;DHT22;39101;53.478;6.158;2023-11-19T13:57:35;11.30;99.90
51500;DHT22;39101;53.478;6.158;2023-11-19T14:00:05;11.30;99.90
51500;DHT22;39101;53.478;6.158;2023-11-19T14:02:33;11.30;99.90
51500;DHT22;39101;53.478;6.158;2023-11-19T14:04:59;11.20;99.90
51500;DHT22;39101;53.478;6.158;2023-11-19T14:07:24;11.20;99.90
51500;DHT22;39101;53.478;6.158;2023-11-19T14:09:50;11.20;99.90
51500;DHT22;39101;53.478;6.158;2023-11-19T14:12:16;11.20;99.90
51500;DHT22;39101;53.478;6.158;2023-11-19T14:14:41;11.20;99.90
51500;DHT22;39101;53.478;6.158;2023-11-19T14:17:08;11.30;99.90
51500;DHT22;39101;53.478;6.158;2023-11-19T14:19:33;11.30;99.90
51500;DHT22;39101;53.478;6.158;2023-11-19T14:21:59;11.20;99.90
51500;DHT22;39101;53.478;6.158;2023-11-19T14:24:26;11.20;99.90
51500;DHT22;39101;53.478;6.158;2023-11-19T14:26:51;11.20;99.90
51500;DHT22;39101;53.478;6.158;2023-11-19T14:29:17;11.20;99.90
51500;DHT22;39101;53.478;6.158;2023-11-19T14:31:43;11.20;99.90
51500;DHT22;39101;53.478;6.158;2023-11-19T14:34:08;11.10;99.90
51500;DHT22;39101;53.478;6.158;2023-11-19T14:36:34;11.00;99.90
51500;DHT22;39101;53.478;6.158;2023-11-19T14:39:00;11.00;99.90
51500;DHT22;39101;53.478;6.158;2023-11-19T14:41:26;11.00;99.90
51500;DHT22;39101;53.478;6.158;2023-11-19T14:43:52;11.10;99.90
51500;DHT22;39101;53.478;6.158;2023-11-19T14:46:18;11.10;99.90
51500;DHT22;39101;53.478;6.158;2023-11-19T14:48:43;11.10;99.90
51500;DHT22;39101;53.478;6.158;2023-11-19T14:51:09;11.10;99.90
51500;DHT22;39101;53.478;6.158;2023-11-19T14:53:35;11.10;99.90
51500;DHT22;39101;53.478;6.158;2023-11-19T14:56:00;11.10;99.90
51500;DHT22;39101;53.478;6.158;2023-11-19T14:58:26;11.10;99.90
51500;DHT22;39101;53.478;6.158;2023-11-19T15:00:52;11.10;99.90
51500;DHT22;39101;53.478;6.158;2023-11-19T15:03:18;11.10;99.90
51500;DHT22;39101;53.478;6.158;2023-11-19T15:05:47;11.10;99.90
51500;DHT22;39101;53.478;6.158;2023-11-19T15:08:13;11.10;99.90
51500;DHT22;39101;53.478;6.158;2023-11-19T15:10:44;11.10;99.90
51500;DHT22;39101;53.478;6.158;2023-11-19T15:13:10;11.10;99.90
51500;DHT22;39101;53.478;6.158;2023-11-19T15:15:36;11.10;99.90
51500;DHT22;39101;53.478;6.158;2023-11-19T15:18:04;11.00;99.90
51500;DHT22;39101;53.478;6.158;2023-11-19T15:20:30;11.00;99.90
51500;DHT22;39101;53.478;6.158;2023-11-19T15:22:57;11.00;99.90
51500;DHT22;39101;53.478;6.158;2023-11-19T15:25:23;11.00;99.90
51500;DHT22;39101;53.478;6.158;2023-11-19T15:27:49;10.90;99.90
51500;DHT22;39101;53.478;6.158;2023-11-19T15:30:15;10.90;99.90
51500;DHT22;39101;53.478;6.158;2023-11-19T15:32:41;10.90;99.90
51500;DHT22;39101;53.478;6.158;2023-11-19T15:35:08;10.90;99.90
51500;DHT22;39101;53.478;6.158;2023-11-19T15:37:34;10.90;99.90
51500;DHT22;39101;53.478;6.158;2023-11-19T15:40:00;10.90;99.90
51500;DHT22;39101;53.478;6.158;2023-11-19T15:42:26;10.90;99.90
51500;DHT22;39101;53.478;6.158;2023-11-19T15:44:51;11.00;99.90
51500;DHT22;39101;53.478;6.158;2023-11-19T15:47:17;10.80;99.90
51500;DHT22;39101;53.478;6.158;2023-11-19T15:49:43;10.80;99.90
51500;DHT22;39101;53.478;6.158;2023-11-19T15:52:10;10.80;99.90
51500;DHT22;39101;53.478;6.158;2023-11-19T15:54:36;10.90;99.90
51500;DHT22;39101;53.478;6.158;2023-11-19T15:57:02;10.90;99.90